createdAt,value
2022-11-27T00:01:27.724Z,3.80
2022-11-27T00:03:56.416Z,3.80
2022-11-27T00:06:26.673Z,3.70
2022-11-27T00:08:59.980Z,3.70
2022-11-27T00:11:29.720Z,3.70
2022-11-27T00:13:57.184Z,3.70
2022-11-27T00:16:26.002Z,3.70
2022-11-27T00:18:54.226Z,3.70
2022-11-27T00:21:32.975Z,3.70
2022-11-27T00:24:02.321Z,3.70
2022-11-27T00:26:36.007Z,3.70
2022-11-27T00:29:05.710Z,3.60
2022-11-27T00:31:34.843Z,3.60
2022-11-27T00:34:05.283Z,3.70
2022-11-27T00:36:34.715Z,3.80
2022-11-27T00:39:02.496Z,3.80
2022-11-27T00:41:30.763Z,3.80
2022-11-27T00:43:58.754Z,3.80
2022-11-27T00:46:29.438Z,3.80
2022-11-27T00:48:59.120Z,3.90
2022-11-27T00:51:27.301Z,3.80
2022-11-27T00:53:55.790Z,3.80
2022-11-27T00:56:27.146Z,3.90
2022-11-27T00:58:55.283Z,3.90
2022-11-27T01:01:25.700Z,4.00
2022-11-27T01:03:54.460Z,3.90
2022-11-27T01:06:22.017Z,3.90
2022-11-27T01:08:49.862Z,3.90
2022-11-27T01:11:19.889Z,3.90
2022-11-27T01:13:47.880Z,3.90
2022-11-27T01:16:18.578Z,3.90
2022-11-27T01:18:48.096Z,3.90
2022-11-27T01:21:17.905Z,3.90
2022-11-27T01:23:45.969Z,3.90
2022-11-27T01:26:13.330Z,3.90
2022-11-27T01:28:41.893Z,3.80
2022-11-27T01:31:13.169Z,3.80
2022-11-27T01:33:40.711Z,3.80
2022-11-27T01:36:10.494Z,3.70
2022-11-27T01:38:38.211Z,3.70
2022-11-27T01:41:25.942Z,3.60
2022-11-27T01:43:56.864Z,3.50
2022-11-27T01:46:46.504Z,3.40
2022-11-27T01:49:32.215Z,3.40
2022-11-27T01:52:02.709Z,3.30
2022-11-27T01:54:37.511Z,3.30
2022-11-27T01:57:18.136Z,3.20
2022-11-27T01:59:47.811Z,3.00
2022-11-27T02:02:15.670Z,2.80
2022-11-27T02:04:43.367Z,2.70
2022-11-27T02:07:10.913Z,2.60
2022-11-27T02:09:38.465Z,2.50
2022-11-27T02:12:25.311Z,2.40
2022-11-27T02:15:19.249Z,2.40
2022-11-27T02:18:14.551Z,2.30
2022-11-27T02:21:13.418Z,2.20
2022-11-27T02:24:18.055Z,2.00
2022-11-27T02:27:11.992Z,1.80
2022-11-27T02:29:41.107Z,1.70
2022-11-27T02:32:33.959Z,1.70
2022-11-27T02:35:19.282Z,1.60
2022-11-27T02:37:56.866Z,1.90
2022-11-27T02:40:34.129Z,1.80
2022-11-27T02:43:09.402Z,1.70
2022-11-27T02:45:43.431Z,1.50
2022-11-27T02:48:16.762Z,1.50
2022-11-27T02:50:45.983Z,1.40
2022-11-27T02:53:19.347Z,1.40
2022-11-27T02:55:48.605Z,1.50
2022-11-27T02:58:20.169Z,1.40
2022-11-27T03:00:49.094Z,1.20
2022-11-27T03:03:20.938Z,1.10
2022-11-27T03:05:52.218Z,1.10
2022-11-27T03:08:31.276Z,1.20
2022-11-27T03:11:11.048Z,1.10
2022-11-27T03:13:44.081Z,1.20
2022-11-27T03:16:42.881Z,1.00
2022-11-27T03:19:45.895Z,1.40
2022-11-27T03:22:13.330Z,1.30
2022-11-27T03:24:41.318Z,1.10
2022-11-27T03:27:12.191Z,0.90
2022-11-27T03:29:45.295Z,0.80
2022-11-27T03:32:13.464Z,0.60
2022-11-27T03:34:41.694Z,0.60
2022-11-27T03:37:09.497Z,0.50
2022-11-27T03:39:37.437Z,0.60
2022-11-27T03:42:25.725Z,0.50
2022-11-27T03:45:03.556Z,0.50
2022-11-27T03:47:58.578Z,0.50
2022-11-27T03:50:57.635Z,0.40
2022-11-27T03:54:02.690Z,0.40
2022-11-27T03:57:13.956Z,0.30
2022-11-27T03:59:44.957Z,0.30
2022-11-27T04:02:16.279Z,0.20
2022-11-27T04:04:43.697Z,0.10
2022-11-27T04:07:17.868Z,0.10
2022-11-27T04:09:45.521Z,0.10
2022-11-27T04:12:12.801Z,0.10
2022-11-27T04:14:40.524Z,0.10
2022-11-27T04:17:08.599Z,0.00
2022-11-27T04:19:36.294Z,0.00
2022-11-27T04:22:03.649Z,-0.10
2022-11-27T04:24:31.005Z,-0.10
2022-11-27T04:26:58.331Z,-0.10
2022-11-27T04:29:25.719Z,-0.20
2022-11-27T04:31:53.116Z,-0.30
2022-11-27T04:34:20.759Z,-0.30
2022-11-27T04:36:48.090Z,-0.30
2022-11-27T04:39:15.863Z,-0.40
2022-11-27T04:41:43.220Z,-0.50
2022-11-27T04:44:12.076Z,-0.60
2022-11-27T04:46:39.725Z,-0.60
2022-11-27T04:49:07.331Z,-0.60
2022-11-27T04:51:34.909Z,-0.50
2022-11-27T04:54:02.454Z,-0.60
2022-11-27T04:56:29.881Z,-0.60
2022-11-27T04:58:57.283Z,-0.60
2022-11-27T05:01:24.856Z,-0.70
2022-11-27T05:03:53.484Z,-0.80
2022-11-27T05:06:22.750Z,-0.80
2022-11-27T05:08:50.230Z,-0.80
2022-11-27T05:11:18.308Z,-0.80
2022-11-27T05:13:45.749Z,-0.80
2022-11-27T05:16:13.319Z,-0.80
2022-11-27T05:18:40.731Z,-0.90
2022-11-27T05:21:08.539Z,-0.80
2022-11-27T05:23:35.940Z,-0.80
2022-11-27T05:26:03.586Z,-0.90
2022-11-27T05:28:31.044Z,-0.90
2022-11-27T05:30:58.493Z,-0.90
2022-11-27T05:33:25.923Z,-0.90
2022-11-27T05:35:53.293Z,-0.90
2022-11-27T05:38:20.619Z,-0.90
2022-11-27T05:40:48.774Z,-0.90
2022-11-27T05:43:16.265Z,-0.90
2022-11-27T05:45:43.623Z,-1.00
2022-11-27T05:48:10.971Z,-1.00
2022-11-27T05:50:38.339Z,-0.90
2022-11-27T05:53:05.878Z,-1.00
2022-11-27T05:55:33.256Z,-0.90
2022-11-27T05:58:00.604Z,-0.90
2022-11-27T06:00:27.983Z,-0.90
2022-11-27T06:02:56.180Z,-0.90
2022-11-27T06:05:24.163Z,-0.90
2022-11-27T06:07:51.595Z,-0.90
2022-11-27T06:10:19.188Z,-0.90
2022-11-27T06:12:46.511Z,-0.90
2022-11-27T06:15:14.020Z,-0.90
2022-11-27T06:17:41.395Z,-0.90
2022-11-27T06:20:09.208Z,-0.90
2022-11-27T06:22:36.577Z,-0.70
2022-11-27T06:25:04.154Z,-0.50
2022-11-27T06:27:35.918Z,-0.30
2022-11-27T06:30:05.230Z,-0.10
2022-11-27T06:32:32.568Z,0.20
2022-11-27T06:35:00.096Z,0.40
2022-11-27T06:37:27.708Z,0.40
2022-11-27T06:39:55.122Z,0.50
2022-11-27T06:42:22.457Z,0.70
2022-11-27T06:44:49.922Z,0.70
2022-11-27T06:47:17.323Z,0.70
2022-11-27T06:49:44.736Z,0.80
2022-11-27T06:52:12.053Z,0.70
2022-11-27T06:54:39.660Z,0.80
2022-11-27T06:57:07.166Z,0.90
2022-11-27T06:59:34.579Z,0.90
2022-11-27T07:02:01.997Z,0.90
2022-11-27T07:04:29.390Z,0.90
2022-11-27T07:06:56.747Z,1.00
2022-11-27T07:09:24.128Z,1.10
2022-11-27T07:11:51.554Z,1.10
2022-11-27T07:14:19.249Z,1.20
2022-11-27T07:16:46.693Z,1.20
2022-11-27T07:19:14.810Z,1.20
2022-11-27T07:21:42.171Z,1.30
2022-11-27T07:24:09.630Z,1.30
2022-11-27T07:26:37.019Z,1.40
2022-11-27T07:29:04.471Z,1.50
2022-11-27T07:31:31.911Z,1.50
2022-11-27T07:33:59.340Z,1.50
2022-11-27T07:36:29.157Z,1.60
2022-11-27T07:38:58.268Z,1.60
2022-11-27T07:41:32.200Z,1.60
2022-11-27T07:44:01.322Z,1.70
2022-11-27T07:46:30.262Z,1.60
2022-11-27T07:48:58.290Z,1.70
2022-11-27T07:51:25.760Z,1.80
2022-11-27T07:53:53.356Z,1.80
2022-11-27T07:56:21.619Z,1.80
2022-11-27T07:58:49.320Z,1.80
2022-11-27T08:01:18.926Z,1.90
2022-11-27T08:03:47.030Z,1.90
2022-11-27T08:06:25.224Z,1.90
2022-11-27T08:08:55.994Z,2.00
2022-11-27T08:11:35.156Z,2.10
2022-11-27T08:14:05.561Z,2.30
2022-11-27T08:16:35.017Z,2.30
2022-11-27T08:19:02.980Z,2.40
2022-11-27T08:21:32.690Z,2.30
2022-11-27T08:24:00.082Z,2.40
2022-11-27T08:26:28.241Z,2.40
2022-11-27T08:28:56.945Z,2.50
2022-11-27T08:31:24.413Z,2.50
2022-11-27T08:33:52.084Z,2.60
2022-11-27T08:36:19.523Z,2.60
2022-11-27T08:38:47.366Z,2.70
2022-11-27T08:41:14.881Z,2.70
2022-11-27T08:43:42.556Z,2.70
2022-11-27T08:46:10.213Z,2.70
2022-11-27T08:48:38.145Z,2.80
2022-11-27T08:51:11.965Z,2.80
2022-11-27T08:53:40.100Z,2.70
2022-11-27T08:56:15.626Z,2.80
2022-11-27T08:58:43.733Z,2.70
2022-11-27T09:01:25.665Z,2.80
2022-11-27T09:03:53.560Z,2.90
2022-11-27T09:06:23.524Z,2.90
2022-11-27T09:08:51.516Z,3.00
2022-11-27T09:11:20.691Z,3.10
2022-11-27T09:13:48.429Z,3.10
2022-11-27T09:16:18.210Z,3.20
2022-11-27T09:18:50.612Z,3.20
2022-11-27T09:21:20.377Z,3.40
2022-11-27T09:23:48.258Z,3.40
2022-11-27T09:26:17.314Z,3.50
2022-11-27T09:28:45.251Z,3.50
2022-11-27T09:31:15.303Z,3.60
2022-11-27T09:33:43.406Z,3.60
2022-11-27T09:36:15.656Z,3.70
2022-11-27T09:38:43.133Z,3.60
2022-11-27T09:41:39.424Z,3.60
2022-11-27T09:44:35.048Z,3.50
2022-11-27T09:47:20.062Z,3.60
2022-11-27T09:50:03.700Z,3.80
2022-11-27T09:52:42.412Z,4.00
2022-11-27T09:55:26.770Z,3.90
2022-11-27T09:58:17.832Z,4.00
2022-11-27T10:00:48.974Z,4.10
2022-11-27T10:03:24.425Z,4.20
2022-11-27T10:06:26.618Z,4.30
2022-11-27T10:09:14.222Z,4.20
2022-11-27T10:11:44.768Z,4.30
2022-11-27T10:14:45.046Z,4.40
2022-11-27T10:17:20.628Z,4.50
2022-11-27T10:20:02.332Z,4.50
2022-11-27T10:23:06.087Z,4.70
2022-11-27T10:25:50.702Z,4.90
2022-11-27T10:29:03.877Z,4.90
2022-11-27T10:31:40.898Z,5.10
2022-11-27T10:34:37.978Z,5.20
2022-11-27T10:37:17.788Z,5.20
2022-11-27T10:39:58.863Z,5.10
2022-11-27T10:42:54.457Z,5.10
2022-11-27T10:45:46.671Z,5.20
2022-11-27T10:48:14.900Z,5.30
2022-11-27T10:50:43.271Z,5.30
2022-11-27T10:53:32.770Z,5.40
2022-11-27T10:56:40.299Z,5.50
2022-11-27T10:59:21.355Z,5.60
2022-11-27T11:01:50.969Z,5.70
2022-11-27T11:04:38.683Z,5.70
2022-11-27T11:07:25.932Z,5.80
2022-11-27T11:09:54.321Z,5.90
2022-11-27T11:12:23.298Z,5.90
2022-11-27T11:14:55.951Z,5.90
2022-11-27T11:17:37.757Z,6.00
2022-11-27T11:20:34.432Z,6.10
2022-11-27T11:23:01.819Z,6.20
2022-11-27T11:25:29.308Z,6.30
2022-11-27T11:27:56.669Z,6.30
2022-11-27T11:30:28.420Z,6.40
2022-11-27T11:33:03.116Z,6.50
2022-11-27T11:35:37.033Z,6.60
2022-11-27T11:38:07.764Z,6.60
2022-11-27T11:40:37.484Z,6.70
2022-11-27T11:43:19.402Z,6.70
2022-11-27T11:45:48.858Z,6.80
2022-11-27T11:48:27.376Z,7.00
2022-11-27T11:51:29.029Z,7.10
2022-11-27T11:54:12.619Z,7.10
2022-11-27T11:56:45.628Z,7.20
2022-11-27T11:59:43.714Z,7.20
2022-11-27T12:02:51.228Z,7.40
2022-11-27T12:05:56.743Z,7.60
2022-11-27T12:08:57.088Z,7.60
2022-11-27T12:11:37.361Z,7.70
2022-11-27T12:15:06.412Z,7.80
2022-11-27T12:17:51.142Z,7.70
2022-11-27T12:20:38.617Z,7.80
2022-11-27T12:23:51.609Z,7.80
2022-11-27T12:27:00.751Z,7.80
2022-11-27T12:30:13.314Z,7.80
2022-11-27T12:33:08.039Z,7.80
2022-11-27T12:36:00.380Z,7.70
2022-11-27T12:38:51.263Z,7.80
2022-11-27T12:41:46.832Z,7.80
2022-11-27T12:44:55.932Z,7.90
2022-11-27T12:47:30.350Z,7.80
2022-11-27T12:50:05.216Z,7.90
2022-11-27T12:52:38.459Z,7.90
2022-11-27T12:55:13.704Z,7.80
2022-11-27T12:57:56.656Z,7.70
2022-11-27T13:00:26.890Z,7.70
2022-11-27T13:03:23.307Z,7.70
2022-11-27T13:06:03.270Z,7.70
2022-11-27T13:09:08.055Z,7.70
2022-11-27T13:11:39.804Z,7.70
2022-11-27T13:14:20.601Z,7.70
2022-11-27T13:16:56.485Z,7.80
2022-11-27T13:19:44.405Z,7.80
2022-11-27T13:22:15.941Z,7.70
2022-11-27T13:24:43.719Z,7.70
2022-11-27T13:27:18.430Z,7.80
2022-11-27T13:30:06.323Z,7.80
2022-11-27T13:32:38.189Z,7.80
2022-11-27T13:35:26.804Z,7.80
2022-11-27T13:38:06.840Z,7.70
2022-11-27T13:40:43.848Z,7.70
2022-11-27T13:43:32.521Z,7.60
2022-11-27T13:46:18.735Z,7.60
2022-11-27T13:49:02.726Z,7.50
2022-11-27T13:51:36.610Z,7.50
2022-11-27T13:54:15.987Z,7.50
2022-11-27T13:56:43.670Z,7.40
2022-11-27T13:59:21.028Z,7.40
2022-11-27T14:01:59.982Z,7.30
2022-11-27T14:04:29.160Z,7.30
2022-11-27T14:07:03.588Z,7.20
2022-11-27T14:09:41.554Z,7.00
2022-11-27T14:12:36.296Z,7.00
2022-11-27T14:15:23.689Z,6.80
2022-11-27T14:17:54.508Z,6.70
2022-11-27T14:20:28.630Z,6.50
2022-11-27T14:23:14.090Z,6.60
2022-11-27T14:25:42.113Z,6.60
2022-11-27T14:28:16.994Z,6.60
2022-11-27T14:30:53.702Z,6.60
2022-11-27T14:33:28.048Z,6.50
2022-11-27T14:36:00.865Z,6.40
2022-11-27T14:38:29.829Z,6.40
2022-11-27T14:41:11.822Z,6.30
2022-11-27T14:43:39.268Z,6.20
2022-11-27T14:46:12.208Z,6.00
2022-11-27T14:48:58.913Z,5.80
2022-11-27T14:51:32.826Z,5.80
2022-11-27T14:54:05.786Z,5.60
2022-11-27T14:56:40.698Z,5.60
2022-11-27T14:59:15.297Z,5.60
2022-11-27T15:01:43.276Z,5.50
2022-11-27T15:04:33.399Z,5.50
2022-11-27T15:07:01.471Z,5.40
2022-11-27T15:09:32.176Z,5.30
2022-11-27T15:12:16.668Z,5.10
2022-11-27T15:15:06.347Z,5.00
2022-11-27T15:17:39.565Z,5.00
2022-11-27T15:20:25.742Z,4.90
2022-11-27T15:22:56.009Z,4.70
2022-11-27T15:25:39.329Z,4.60
2022-11-27T15:28:34.031Z,4.50
2022-11-27T15:31:02.880Z,4.40
2022-11-27T15:33:34.658Z,4.30
2022-11-27T15:36:21.599Z,4.30
2022-11-27T15:38:51.283Z,4.10
2022-11-27T15:41:23.204Z,4.10
2022-11-27T15:43:50.760Z,4.10
2022-11-27T15:46:32.158Z,4.00
2022-11-27T15:48:59.583Z,3.90
2022-11-27T15:51:26.988Z,3.80
2022-11-27T15:53:54.432Z,3.70
2022-11-27T15:56:21.784Z,3.60
2022-11-27T15:58:49.181Z,3.60
2022-11-27T16:01:16.659Z,3.50
2022-11-27T16:03:44.161Z,3.50
2022-11-27T16:06:11.507Z,3.20
2022-11-27T16:08:38.921Z,3.10
2022-11-27T16:11:11.468Z,3.20
2022-11-27T16:13:39.102Z,3.20
2022-11-27T16:16:08.939Z,3.20
2022-11-27T16:18:36.825Z,3.30
2022-11-27T16:21:05.684Z,3.20
2022-11-27T16:23:36.496Z,3.10
2022-11-27T16:26:04.577Z,3.10
2022-11-27T16:28:32.740Z,3.10
2022-11-27T16:31:02.495Z,3.00
2022-11-27T16:33:31.696Z,3.00
2022-11-27T16:36:13.716Z,2.90
2022-11-27T16:38:42.543Z,3.00
2022-11-27T16:41:12.420Z,2.90
2022-11-27T16:43:48.524Z,2.70
2022-11-27T16:46:27.596Z,2.70
2022-11-27T16:48:56.583Z,2.60
2022-11-27T16:51:26.366Z,2.50
2022-11-27T16:53:56.100Z,2.40
2022-11-27T16:56:26.066Z,2.20
2022-11-27T16:58:59.378Z,2.20
2022-11-27T17:01:34.620Z,2.20
2022-11-27T17:04:04.789Z,2.20
2022-11-27T17:06:33.463Z,2.20
2022-11-27T17:09:04.221Z,2.10
2022-11-27T17:11:33.964Z,2.10
2022-11-27T17:14:05.519Z,2.00
2022-11-27T17:16:37.065Z,2.00
2022-11-27T17:19:05.065Z,1.90
2022-11-27T17:21:34.794Z,1.80
2022-11-27T17:24:14.521Z,1.70
2022-11-27T17:26:45.428Z,1.60
2022-11-27T17:29:15.089Z,1.70
2022-11-27T17:31:43.624Z,1.50
2022-11-27T17:34:13.742Z,1.50
2022-11-27T17:36:43.187Z,1.50
2022-11-27T17:39:13.900Z,1.50
2022-11-27T17:41:44.542Z,1.40
2022-11-27T17:44:12.309Z,1.30
2022-11-27T17:46:40.200Z,1.30
2022-11-27T17:49:08.390Z,1.30
2022-11-27T17:51:36.696Z,1.40
2022-11-27T17:54:05.585Z,1.30
2022-11-27T17:56:34.428Z,1.20
2022-11-27T17:59:02.079Z,1.30
2022-11-27T18:01:31.029Z,1.20
2022-11-27T18:04:01.099Z,1.10
2022-11-27T18:06:32.071Z,1.10
2022-11-27T18:09:00.386Z,0.90
2022-11-27T18:11:30.948Z,0.80
2022-11-27T18:14:00.905Z,0.80
2022-11-27T18:16:36.517Z,0.80
2022-11-27T18:19:07.062Z,0.80
2022-11-27T18:21:35.739Z,0.70
2022-11-27T18:27:08.238Z,0.60
2022-11-27T18:29:37.993Z,0.40
2022-11-27T18:32:05.974Z,0.30
2022-11-27T18:34:33.872Z,0.30
2022-11-27T18:37:01.668Z,0.40
2022-11-27T18:39:29.108Z,0.30
2022-11-27T18:41:56.516Z,0.40
2022-11-27T18:44:24.482Z,0.30
2022-11-27T18:46:52.008Z,0.30
2022-11-27T18:49:19.587Z,0.30
2022-11-27T18:51:49.191Z,0.30
2022-11-27T18:54:16.751Z,0.30
2022-11-27T18:56:44.098Z,0.30
2022-11-27T18:59:11.576Z,0.40
2022-11-27T19:01:42.596Z,0.50
2022-11-27T19:04:11.627Z,0.50
2022-11-27T19:06:39.816Z,0.40
2022-11-27T19:09:07.732Z,0.50
2022-11-27T19:11:35.411Z,0.50
2022-11-27T19:14:05.208Z,0.60
2022-11-27T19:16:41.897Z,0.70
2022-11-27T19:19:38.959Z,0.70
2022-11-27T19:21:57.819Z,0.70
2022-11-27T19:24:26.812Z,0.60
2022-11-27T19:26:54.437Z,0.60
2022-11-27T19:29:21.799Z,0.50
2022-11-27T19:31:49.487Z,0.50
2022-11-27T19:34:17.135Z,0.50
2022-11-27T19:36:45.210Z,0.50
2022-11-27T19:39:14.915Z,0.40
2022-11-27T19:41:43.945Z,0.30
2022-11-27T19:44:13.283Z,0.20
2022-11-27T19:46:41.259Z,0.20
2022-11-27T19:49:13.526Z,0.20
2022-11-27T19:51:41.163Z,0.10
2022-11-27T19:54:13.104Z,0.10
2022-11-27T19:56:42.658Z,0.00
2022-11-27T19:59:11.516Z,-0.10
2022-11-27T20:01:41.774Z,-0.20
2022-11-27T20:04:15.083Z,-0.30
2022-11-27T20:06:43.679Z,-0.40
2022-11-27T20:09:11.202Z,-0.40
2022-11-27T20:11:39.810Z,-0.50
2022-11-27T20:14:07.915Z,-0.50
2022-11-27T20:16:37.965Z,-0.50
2022-11-27T20:19:06.494Z,-0.60
2022-11-27T20:21:36.860Z,-0.60
2022-11-27T20:24:04.927Z,-0.50
2022-11-27T20:26:39.649Z,-0.60
2022-11-27T20:29:10.756Z,-0.60
2022-11-27T20:31:41.027Z,-0.60
2022-11-27T20:34:14.920Z,-0.60
2022-11-27T20:36:42.745Z,-0.50
2022-11-27T20:39:13.964Z,-0.40
2022-11-27T20:41:46.203Z,-0.30
2022-11-27T20:44:13.774Z,-0.10
2022-11-27T20:46:41.711Z,0.30
2022-11-27T20:49:09.210Z,0.40
2022-11-27T20:51:36.834Z,0.90
2022-11-27T20:54:10.772Z,1.20
2022-11-27T20:56:38.908Z,1.40
2022-11-27T20:59:07.946Z,1.60
2022-11-27T21:01:38.984Z,1.70
2022-11-27T21:04:15.824Z,1.80
2022-11-27T21:06:44.360Z,1.80
2022-11-27T21:09:14.083Z,1.90
2022-11-27T21:11:42.800Z,2.00
2022-11-27T21:14:12.492Z,2.10
2022-11-27T21:16:43.357Z,2.10
2022-11-27T21:19:18.359Z,2.20
2022-11-27T21:21:46.044Z,2.20
2022-11-27T21:24:14.126Z,2.20
2022-11-27T21:26:42.493Z,2.20
2022-11-27T21:29:12.449Z,2.30
2022-11-27T21:31:45.153Z,2.50
2022-11-27T21:34:15.263Z,2.50
2022-11-27T21:36:43.400Z,2.70
2022-11-27T21:39:13.488Z,2.70
2022-11-27T21:41:41.629Z,2.60
2022-11-27T21:44:09.810Z,2.60
2022-11-27T21:46:38.811Z,2.60
2022-11-27T21:49:07.100Z,2.60
2022-11-27T21:51:34.618Z,2.60
2022-11-27T21:54:07.483Z,2.60
2022-11-27T21:56:37.842Z,2.50
2022-11-27T21:59:06.657Z,2.40
2022-11-27T22:01:34.227Z,2.40
2022-11-27T22:04:02.665Z,2.60
2022-11-27T22:06:35.902Z,2.60
2022-11-27T22:09:04.552Z,2.70
2022-11-27T22:11:32.127Z,2.70
2022-11-27T22:14:05.022Z,2.70
2022-11-27T22:16:41.325Z,2.60
2022-11-27T22:19:12.234Z,2.60
2022-11-27T22:21:39.703Z,2.60
2022-11-27T22:24:12.172Z,2.60
2022-11-27T22:26:44.263Z,2.80
2022-11-27T22:29:11.604Z,2.60
2022-11-27T22:31:39.011Z,2.50
2022-11-27T22:34:06.455Z,2.60
2022-11-27T22:36:35.123Z,2.60
2022-11-27T22:39:06.157Z,2.70
2022-11-27T22:41:36.737Z,2.80
2022-11-27T22:44:19.434Z,2.80
2022-11-27T22:46:47.451Z,2.90
2022-11-27T22:49:17.129Z,3.00
2022-11-27T22:51:44.944Z,3.00
2022-11-27T22:54:15.189Z,3.00
2022-11-27T22:56:45.813Z,2.90
2022-11-27T23:02:03.632Z,3.00
2022-11-27T23:04:31.666Z,2.90
2022-11-27T23:06:59.474Z,2.90
2022-11-27T23:09:27.238Z,3.00
2022-11-27T23:11:56.499Z,3.00
2022-11-27T23:14:24.598Z,3.20
2022-11-27T23:16:52.202Z,3.10
2022-11-27T23:19:19.816Z,3.00
2022-11-27T23:21:47.188Z,3.00
2022-11-27T23:24:17.693Z,2.90
2022-11-27T23:26:45.975Z,2.90
2022-11-27T23:29:14.492Z,2.80
2022-11-27T23:31:41.979Z,2.80
2022-11-27T23:34:13.524Z,2.90
2022-11-27T23:36:40.931Z,3.10
2022-11-27T23:39:10.900Z,3.00
2022-11-27T23:41:39.868Z,3.00
2022-11-27T23:44:07.786Z,2.90
2022-11-27T23:46:35.222Z,2.90
2022-11-27T23:49:02.582Z,2.90
2022-11-27T23:51:32.544Z,2.90
2022-11-27T23:54:00.854Z,3.00
2022-11-27T23:56:31.040Z,2.90
2022-11-27T23:58:59.132Z,2.90
